sensor_id;sensor_type;location;lat;lon;timestamp;temperature;humidity
6355;DHT22;3210;48.708;9.030;2023-07-29T00:01:02;15.70;99.90
6355;DHT22;3210;48.708;9.030;2023-07-29T00:03:29;15.80;1.00
6355;DHT22;3210;48.708;9.030;2023-07-29T00:05:57;15.80;1.00
6355;DHT22;3210;48.708;9.030;2023-07-29T00:08:24;15.80;1.00
6355;DHT22;3210;48.708;9.030;2023-07-29T00:10:51;15.80;1.00
6355;DHT22;3210;48.708;9.030;2023-07-29T00:13:19;15.80;1.00
6355;DHT22;3210;48.708;9.030;2023-07-29T00:15:46;15.80;7.70
6355;DHT22;3210;48.708;9.030;2023-07-29T00:18:12;15.80;20.70
6355;DHT22;3210;48.708;9.030;2023-07-29T00:20:39;15.80;18.00
6355;DHT22;3210;48.708;9.030;2023-07-29T00:23:06;15.70;1.00
6355;DHT22;3210;48.708;9.030;2023-07-29T00:25:33;15.60;1.00
6355;DHT22;3210;48.708;9.030;2023-07-29T00:28:00;15.60;1.00
6355;DHT22;3210;48.708;9.030;2023-07-29T00:30:28;15.70;1.00
6355;DHT22;3210;48.708;9.030;2023-07-29T00:32:55;15.70;1.00
6355;DHT22;3210;48.708;9.030;2023-07-29T00:35:21;15.70;7.70
6355;DHT22;3210;48.708;9.030;2023-07-29T00:37:48;15.60;1.00
6355;DHT22;3210;48.708;9.030;2023-07-29T00:40:22;15.60;5.20
6355;DHT22;3210;48.708;9.030;2023-07-29T00:42:49;15.70;61.50
6355;DHT22;3210;48.708;9.030;2023-07-29T00:45:17;15.70;99.90
6355;DHT22;3210;48.708;9.030;2023-07-29T00:47:45;15.80;99.90
6355;DHT22;3210;48.708;9.030;2023-07-29T00:50:13;15.80;99.90
6355;DHT22;3210;48.708;9.030;2023-07-29T00:52:41;15.80;99.90
6355;DHT22;3210;48.708;9.030;2023-07-29T00:55:08;15.80;88.00
6355;DHT22;3210;48.708;9.030;2023-07-29T00:57:35;15.70;60.40
6355;DHT22;3210;48.708;9.030;2023-07-29T01:00:03;15.70;45.80
6355;DHT22;3210;48.708;9.030;2023-07-29T01:02:30;15.60;61.10
6355;DHT22;3210;48.708;9.030;2023-07-29T01:04:59;15.60;99.90
6355;DHT22;3210;48.708;9.030;2023-07-29T01:07:31;15.60;99.90
6355;DHT22;3210;48.708;9.030;2023-07-29T01:10:02;15.70;99.90
6355;DHT22;3210;48.708;9.030;2023-07-29T01:12:36;15.80;99.90
6355;DHT22;3210;48.708;9.030;2023-07-29T01:15:11;15.80;99.90
6355;DHT22;3210;48.708;9.030;2023-07-29T01:17:43;15.70;99.90
6355;DHT22;3210;48.708;9.030;2023-07-29T01:20:14;15.60;99.90
6355;DHT22;3210;48.708;9.030;2023-07-29T01:22:41;15.60;99.90
6355;DHT22;3210;48.708;9.030;2023-07-29T01:25:10;15.60;99.90
6355;DHT22;3210;48.708;9.030;2023-07-29T01:27:36;15.60;99.90
6355;DHT22;3210;48.708;9.030;2023-07-29T01:30:04;15.60;99.90
6355;DHT22;3210;48.708;9.030;2023-07-29T01:32:37;15.60;1.00
6355;DHT22;3210;48.708;9.030;2023-07-29T01:35:19;15.60;1.00
6355;DHT22;3210;48.708;9.030;2023-07-29T01:37:52;15.60;1.00
6355;DHT22;3210;48.708;9.030;2023-07-29T01:40:22;15.60;1.00
6355;DHT22;3210;48.708;9.030;2023-07-29T01:42:50;15.50;1.00
6355;DHT22;3210;48.708;9.030;2023-07-29T01:45:17;15.60;10.80
6355;DHT22;3210;48.708;9.030;2023-07-29T01:47:44;15.50;24.10
6355;DHT22;3210;48.708;9.030;2023-07-29T01:50:11;15.60;78.70
6355;DHT22;3210;48.708;9.030;2023-07-29T01:52:38;15.60;99.90
6355;DHT22;3210;48.708;9.030;2023-07-29T01:55:05;15.60;99.90
6355;DHT22;3210;48.708;9.030;2023-07-29T01:57:33;15.60;99.90
6355;DHT22;3210;48.708;9.030;2023-07-29T02:00:00;15.60;1.00
6355;DHT22;3210;48.708;9.030;2023-07-29T02:02:27;15.60;99.90
6355;DHT22;3210;48.708;9.030;2023-07-29T02:04:54;15.60;99.90
6355;DHT22;3210;48.708;9.030;2023-07-29T02:07:21;15.60;99.90
6355;DHT22;3210;48.708;9.030;2023-07-29T02:09:48;15.50;99.90
6355;DHT22;3210;48.708;9.030;2023-07-29T02:12:15;15.50;99.90
6355;DHT22;3210;48.708;9.030;2023-07-29T02:14:43;15.50;1.00
6355;DHT22;3210;48.708;9.030;2023-07-29T02:17:10;15.50;1.00
6355;DHT22;3210;48.708;9.030;2023-07-29T02:19:36;15.40;1.00
6355;DHT22;3210;48.708;9.030;2023-07-29T02:22:03;15.40;1.00
6355;DHT22;3210;48.708;9.030;2023-07-29T02:24:30;15.50;1.00
6355;DHT22;3210;48.708;9.030;2023-07-29T02:26:57;15.40;1.00
6355;DHT22;3210;48.708;9.030;2023-07-29T02:29:24;15.40;1.00
6355;DHT22;3210;48.708;9.030;2023-07-29T02:31:52;15.50;1.00
6355;DHT22;3210;48.708;9.030;2023-07-29T02:34:19;15.50;1.00
6355;DHT22;3210;48.708;9.030;2023-07-29T02:36:46;15.40;1.00
6355;DHT22;3210;48.708;9.030;2023-07-29T02:39:12;15.40;1.00
6355;DHT22;3210;48.708;9.030;2023-07-29T02:41:39;15.40;1.00
6355;DHT22;3210;48.708;9.030;2023-07-29T02:44:06;15.50;1.00
6355;DHT22;3210;48.708;9.030;2023-07-29T02:46:33;15.50;1.00
6355;DHT22;3210;48.708;9.030;2023-07-29T02:49:01;15.50;1.00
6355;DHT22;3210;48.708;9.030;2023-07-29T02:51:28;15.60;1.00
6355;DHT22;3210;48.708;9.030;2023-07-29T02:53:55;15.70;1.00
6355;DHT22;3210;48.708;9.030;2023-07-29T02:56:21;15.70;1.00
6355;DHT22;3210;48.708;9.030;2023-07-29T02:58:49;15.70;1.00
6355;DHT22;3210;48.708;9.030;2023-07-29T03:01:17;15.70;1.00
6355;DHT22;3210;48.708;9.030;2023-07-29T03:03:44;15.70;1.00
6355;DHT22;3210;48.708;9.030;2023-07-29T03:06:14;15.70;1.00
6355;DHT22;3210;48.708;9.030;2023-07-29T03:08:41;15.70;1.00
6355;DHT22;3210;48.708;9.030;2023-07-29T03:11:08;15.70;1.00
6355;DHT22;3210;48.708;9.030;2023-07-29T03:13:35;15.70;1.00
6355;DHT22;3210;48.708;9.030;2023-07-29T03:16:06;15.70;1.00
6355;DHT22;3210;48.708;9.030;2023-07-29T03:18:33;15.70;1.00
6355;DHT22;3210;48.708;9.030;2023-07-29T03:21:01;15.70;1.00
6355;DHT22;3210;48.708;9.030;2023-07-29T03:23:30;15.70;1.00
6355;DHT22;3210;48.708;9.030;2023-07-29T03:25:58;15.70;1.00
6355;DHT22;3210;48.708;9.030;2023-07-29T03:28:26;15.80;1.00
6355;DHT22;3210;48.708;9.030;2023-07-29T03:30:53;15.80;1.00
6355;DHT22;3210;48.708;9.030;2023-07-29T03:33:20;15.80;1.00
6355;DHT22;3210;48.708;9.030;2023-07-29T03:35:47;15.80;1.00
6355;DHT22;3210;48.708;9.030;2023-07-29T03:38:14;15.80;1.00
6355;DHT22;3210;48.708;9.030;2023-07-29T03:40:42;15.80;1.00
6355;DHT22;3210;48.708;9.030;2023-07-29T03:43:10;15.90;1.00
6355;DHT22;3210;48.708;9.030;2023-07-29T03:45:37;15.80;1.00
6355;DHT22;3210;48.708;9.030;2023-07-29T03:48:05;15.80;1.00
6355;DHT22;3210;48.708;9.030;2023-07-29T03:50:33;15.80;1.00
6355;DHT22;3210;48.708;9.030;2023-07-29T03:53:00;15.90;1.00
6355;DHT22;3210;48.708;9.030;2023-07-29T03:55:27;15.90;1.00
6355;DHT22;3210;48.708;9.030;2023-07-29T03:57:56;16.00;1.00
6355;DHT22;3210;48.708;9.030;2023-07-29T04:00:23;16.10;1.00
6355;DHT22;3210;48.708;9.030;2023-07-29T04:02:50;16.10;1.00
6355;DHT22;3210;48.708;9.030;2023-07-29T04:05:17;16.20;5.20
6355;DHT22;3210;48.708;9.030;2023-07-29T04:07:44;16.20;1.00
6355;DHT22;3210;48.708;9.030;2023-07-29T04:10:11;16.20;1.00
6355;DHT22;3210;48.708;9.030;2023-07-29T04:12:38;16.20;1.00
6355;DHT22;3210;48.708;9.030;2023-07-29T04:15:08;16.20;1.00
6355;DHT22;3210;48.708;9.030;2023-07-29T04:17:34;16.30;1.00
6355;DHT22;3210;48.708;9.030;2023-07-29T04:20:02;16.30;1.00
6355;DHT22;3210;48.708;9.030;2023-07-29T04:22:29;16.20;1.00
6355;DHT22;3210;48.708;9.030;2023-07-29T04:24:56;16.30;1.00
6355;DHT22;3210;48.708;9.030;2023-07-29T04:27:22;16.30;1.00
6355;DHT22;3210;48.708;9.030;2023-07-29T04:29:49;16.40;1.00
6355;DHT22;3210;48.708;9.030;2023-07-29T04:32:17;16.40;1.00
6355;DHT22;3210;48.708;9.030;2023-07-29T04:34:44;16.40;1.00
6355;DHT22;3210;48.708;9.030;2023-07-29T04:37:11;16.40;1.00
6355;DHT22;3210;48.708;9.030;2023-07-29T04:39:38;16.40;1.00
6355;DHT22;3210;48.708;9.030;2023-07-29T04:42:05;16.40;1.00
6355;DHT22;3210;48.708;9.030;2023-07-29T04:44:32;16.50;1.00
6355;DHT22;3210;48.708;9.030;2023-07-29T04:46:59;16.50;1.00
6355;DHT22;3210;48.708;9.030;2023-07-29T04:49:27;16.50;1.00
6355;DHT22;3210;48.708;9.030;2023-07-29T04:51:54;16.50;99.90
6355;DHT22;3210;48.708;9.030;2023-07-29T04:54:20;16.60;1.00
6355;DHT22;3210;48.708;9.030;2023-07-29T04:56:49;16.50;99.90
6355;DHT22;3210;48.708;9.030;2023-07-29T04:59:25;16.50;99.90
6355;DHT22;3210;48.708;9.030;2023-07-29T05:01:52;16.60;1.00
6355;DHT22;3210;48.708;9.030;2023-07-29T05:04:19;16.60;58.30
6355;DHT22;3210;48.708;9.030;2023-07-29T05:06:47;16.60;99.90
6355;DHT22;3210;48.708;9.030;2023-07-29T05:09:14;16.60;27.20
6355;DHT22;3210;48.708;9.030;2023-07-29T05:11:42;16.70;1.00
6355;DHT22;3210;48.708;9.030;2023-07-29T05:14:10;16.70;99.90
6355;DHT22;3210;48.708;9.030;2023-07-29T05:16:37;16.70;1.00
6355;DHT22;3210;48.708;9.030;2023-07-29T05:19:04;16.70;1.00
6355;DHT22;3210;48.708;9.030;2023-07-29T05:21:31;16.80;99.90
6355;DHT22;3210;48.708;9.030;2023-07-29T05:23:59;16.80;99.90
6355;DHT22;3210;48.708;9.030;2023-07-29T05:26:26;16.80;99.90
6355;DHT22;3210;48.708;9.030;2023-07-29T05:28:53;16.80;59.50
6355;DHT22;3210;48.708;9.030;2023-07-29T05:31:20;16.90;52.10
6355;DHT22;3210;48.708;9.030;2023-07-29T05:33:46;17.00;99.90
6355;DHT22;3210;48.708;9.030;2023-07-29T05:36:13;17.10;1.00
6355;DHT22;3210;48.708;9.030;2023-07-29T05:38:40;17.20;99.90
6355;DHT22;3210;48.708;9.030;2023-07-29T05:41:09;17.30;99.90
6355;DHT22;3210;48.708;9.030;2023-07-29T05:43:35;17.30;99.90
6355;DHT22;3210;48.708;9.030;2023-07-29T05:46:02;17.40;99.90
6355;DHT22;3210;48.708;9.030;2023-07-29T05:48:29;17.50;61.50
6355;DHT22;3210;48.708;9.030;2023-07-29T05:50:56;17.60;99.90
6355;DHT22;3210;48.708;9.030;2023-07-29T05:53:22;17.70;99.90
6355;DHT22;3210;48.708;9.030;2023-07-29T05:55:49;17.80;99.90
6355;DHT22;3210;48.708;9.030;2023-07-29T05:58:17;17.90;1.00
6355;DHT22;3210;48.708;9.030;2023-07-29T06:00:44;18.00;1.00
6355;DHT22;3210;48.708;9.030;2023-07-29T06:03:11;18.10;99.90
6355;DHT22;3210;48.708;9.030;2023-07-29T06:05:38;18.10;99.90
6355;DHT22;3210;48.708;9.030;2023-07-29T06:08:05;18.20;99.90
6355;DHT22;3210;48.708;9.030;2023-07-29T06:10:34;18.30;99.90
6355;DHT22;3210;48.708;9.030;2023-07-29T06:13:00;18.40;99.90
6355;DHT22;3210;48.708;9.030;2023-07-29T06:15:29;18.50;99.90
6355;DHT22;3210;48.708;9.030;2023-07-29T06:17:55;18.60;99.90
6355;DHT22;3210;48.708;9.030;2023-07-29T06:20:22;18.80;99.90
6355;DHT22;3210;48.708;9.030;2023-07-29T06:22:49;18.90;99.90
6355;DHT22;3210;48.708;9.030;2023-07-29T06:25:16;19.00;99.90
6355;DHT22;3210;48.708;9.030;2023-07-29T06:27:43;19.00;60.20
6355;DHT22;3210;48.708;9.030;2023-07-29T06:30:10;19.00;1.00
6355;DHT22;3210;48.708;9.030;2023-07-29T06:32:38;18.90;1.00
6355;DHT22;3210;48.708;9.030;2023-07-29T06:35:05;18.90;24.50
6355;DHT22;3210;48.708;9.030;2023-07-29T06:37:32;18.90;59.90
6355;DHT22;3210;48.708;9.030;2023-07-29T06:39:59;18.80;1.00
6355;DHT22;3210;48.708;9.030;2023-07-29T06:42:26;18.70;39.00
6355;DHT22;3210;48.708;9.030;2023-07-29T06:44:53;18.70;99.90
6355;DHT22;3210;48.708;9.030;2023-07-29T06:47:20;18.70;99.90
6355;DHT22;3210;48.708;9.030;2023-07-29T06:49:48;18.50;99.90
6355;DHT22;3210;48.708;9.030;2023-07-29T06:52:14;18.40;1.00
6355;DHT22;3210;48.708;9.030;2023-07-29T06:54:41;18.40;99.90
6355;DHT22;3210;48.708;9.030;2023-07-29T06:57:08;18.40;99.90
6355;DHT22;3210;48.708;9.030;2023-07-29T06:59:35;18.30;1.00
6355;DHT22;3210;48.708;9.030;2023-07-29T07:02:02;18.30;1.00
6355;DHT22;3210;48.708;9.030;2023-07-29T07:04:29;18.20;1.00
6355;DHT22;3210;48.708;9.030;2023-07-29T07:06:57;18.10;99.90
6355;DHT22;3210;48.708;9.030;2023-07-29T07:09:23;18.00;99.90
6355;DHT22;3210;48.708;9.030;2023-07-29T07:11:50;18.00;1.00
6355;DHT22;3210;48.708;9.030;2023-07-29T07:14:18;18.00;99.90
6355;DHT22;3210;48.708;9.030;2023-07-29T07:16:44;18.00;99.90
6355;DHT22;3210;48.708;9.030;2023-07-29T07:19:11;18.00;99.90
6355;DHT22;3210;48.708;9.030;2023-07-29T07:21:38;17.90;99.90
6355;DHT22;3210;48.708;9.030;2023-07-29T07:24:06;17.90;99.90
6355;DHT22;3210;48.708;9.030;2023-07-29T07:26:33;17.90;1.00
6355;DHT22;3210;48.708;9.030;2023-07-29T07:29:00;17.90;99.90
6355;DHT22;3210;48.708;9.030;2023-07-29T07:31:27;18.00;1.00
6355;DHT22;3210;48.708;9.030;2023-07-29T07:33:53;18.00;2.50
6355;DHT22;3210;48.708;9.030;2023-07-29T07:36:20;18.20;1.00
6355;DHT22;3210;48.708;9.030;2023-07-29T07:38:47;18.20;99.90
6355;DHT22;3210;48.708;9.030;2023-07-29T07:41:15;18.20;14.60
6355;DHT22;3210;48.708;9.030;2023-07-29T07:43:42;18.40;1.00
6355;DHT22;3210;48.708;9.030;2023-07-29T07:46:09;18.50;1.00
6355;DHT22;3210;48.708;9.030;2023-07-29T07:48:35;18.50;48.10
6355;DHT22;3210;48.708;9.030;2023-07-29T07:51:10;18.60;99.90
6355;DHT22;3210;48.708;9.030;2023-07-29T07:53:37;18.70;1.00
6355;DHT22;3210;48.708;9.030;2023-07-29T07:56:03;18.80;99.90
6355;DHT22;3210;48.708;9.030;2023-07-29T07:58:32;18.80;99.90
6355;DHT22;3210;48.708;9.030;2023-07-29T08:01:01;18.90;53.50
6355;DHT22;3210;48.708;9.030;2023-07-29T08:03:28;19.00;72.10
6355;DHT22;3210;48.708;9.030;2023-07-29T08:05:55;19.10;1.00
6355;DHT22;3210;48.708;9.030;2023-07-29T08:08:22;19.20;99.90
6355;DHT22;3210;48.708;9.030;2023-07-29T08:10:48;19.40;1.00
6355;DHT22;3210;48.708;9.030;2023-07-29T08:13:15;19.60;99.90
6355;DHT22;3210;48.708;9.030;2023-07-29T08:15:47;19.60;99.90
6355;DHT22;3210;48.708;9.030;2023-07-29T08:18:14;19.70;99.90
6355;DHT22;3210;48.708;9.030;2023-07-29T08:20:41;19.70;99.90
6355;DHT22;3210;48.708;9.030;2023-07-29T08:23:07;19.80;99.90
6355;DHT22;3210;48.708;9.030;2023-07-29T08:25:34;19.90;99.90
6355;DHT22;3210;48.708;9.030;2023-07-29T08:28:01;20.00;99.90
6355;DHT22;3210;48.708;9.030;2023-07-29T08:30:28;20.10;99.90
6355;DHT22;3210;48.708;9.030;2023-07-29T08:32:56;20.20;99.90
6355;DHT22;3210;48.708;9.030;2023-07-29T08:35:23;20.30;99.90
6355;DHT22;3210;48.708;9.030;2023-07-29T08:37:49;20.50;1.00
6355;DHT22;3210;48.708;9.030;2023-07-29T08:40:17;20.60;1.00
6355;DHT22;3210;48.708;9.030;2023-07-29T08:42:45;20.60;1.00
6355;DHT22;3210;48.708;9.030;2023-07-29T08:45:14;20.70;1.00
6355;DHT22;3210;48.708;9.030;2023-07-29T08:47:42;20.90;1.00
6355;DHT22;3210;48.708;9.030;2023-07-29T08:50:11;21.00;1.00
6355;DHT22;3210;48.708;9.030;2023-07-29T08:52:38;21.30;1.00
6355;DHT22;3210;48.708;9.030;2023-07-29T08:55:06;21.40;99.90
6355;DHT22;3210;48.708;9.030;2023-07-29T08:57:34;21.50;1.00
6355;DHT22;3210;48.708;9.030;2023-07-29T09:00:01;21.50;99.90
6355;DHT22;3210;48.708;9.030;2023-07-29T09:02:28;21.40;99.90
6355;DHT22;3210;48.708;9.030;2023-07-29T09:04:55;21.50;99.90
6355;DHT22;3210;48.708;9.030;2023-07-29T09:07:24;21.50;99.90
6355;DHT22;3210;48.708;9.030;2023-07-29T09:09:51;21.60;99.90
6355;DHT22;3210;48.708;9.030;2023-07-29T09:12:18;21.60;99.90
6355;DHT22;3210;48.708;9.030;2023-07-29T09:14:45;21.80;99.90
6355;DHT22;3210;48.708;9.030;2023-07-29T09:17:12;22.00;99.90
6355;DHT22;3210;48.708;9.030;2023-07-29T09:19:40;22.30;99.90
6355;DHT22;3210;48.708;9.030;2023-07-29T09:22:17;22.50;99.90
6355;DHT22;3210;48.708;9.030;2023-07-29T09:24:46;22.60;99.90
6355;DHT22;3210;48.708;9.030;2023-07-29T09:27:23;22.70;37.30
6355;DHT22;3210;48.708;9.030;2023-07-29T09:29:50;22.70;1.00
6355;DHT22;3210;48.708;9.030;2023-07-29T09:32:21;22.50;1.00
6355;DHT22;3210;48.708;9.030;2023-07-29T09:34:48;22.30;6.90
6355;DHT22;3210;48.708;9.030;2023-07-29T09:37:19;22.20;1.00
6355;DHT22;3210;48.708;9.030;2023-07-29T09:39:49;22.10;20.60
6355;DHT22;3210;48.708;9.030;2023-07-29T09:42:18;22.00;83.50
6355;DHT22;3210;48.708;9.030;2023-07-29T09:44:45;22.20;99.90
6355;DHT22;3210;48.708;9.030;2023-07-29T09:47:19;22.30;25.70
6355;DHT22;3210;48.708;9.030;2023-07-29T09:49:47;22.40;16.40
6355;DHT22;3210;48.708;9.030;2023-07-29T09:52:15;22.50;1.00
6355;DHT22;3210;48.708;9.030;2023-07-29T09:54:43;22.60;3.10
6355;DHT22;3210;48.708;9.030;2023-07-29T09:57:14;22.80;1.00
6355;DHT22;3210;48.708;9.030;2023-07-29T09:59:41;23.00;1.00
6355;DHT22;3210;48.708;9.030;2023-07-29T10:02:14;23.00;1.00
6355;DHT22;3210;48.708;9.030;2023-07-29T10:04:42;23.10;1.00
6355;DHT22;3210;48.708;9.030;2023-07-29T10:07:09;23.40;1.00
6355;DHT22;3210;48.708;9.030;2023-07-29T10:09:38;23.60;1.00
6355;DHT22;3210;48.708;9.030;2023-07-29T10:12:06;23.80;1.00
6355;DHT22;3210;48.708;9.030;2023-07-29T10:14:35;24.10;1.00
6355;DHT22;3210;48.708;9.030;2023-07-29T10:17:05;24.10;1.00
6355;DHT22;3210;48.708;9.030;2023-07-29T10:19:32;24.20;1.00
6355;DHT22;3210;48.708;9.030;2023-07-29T10:22:00;24.10;1.00
6355;DHT22;3210;48.708;9.030;2023-07-29T10:24:30;24.10;1.00
6355;DHT22;3210;48.708;9.030;2023-07-29T10:26:58;24.30;1.00
6355;DHT22;3210;48.708;9.030;2023-07-29T10:29:29;24.50;1.00
6355;DHT22;3210;48.708;9.030;2023-07-29T10:32:01;24.50;1.00
6355;DHT22;3210;48.708;9.030;2023-07-29T10:34:30;24.60;1.00
6355;DHT22;3210;48.708;9.030;2023-07-29T10:36:57;24.50;1.00
6355;DHT22;3210;48.708;9.030;2023-07-29T10:39:25;24.30;1.00
6355;DHT22;3210;48.708;9.030;2023-07-29T10:42:01;24.30;1.00
6355;DHT22;3210;48.708;9.030;2023-07-29T10:44:50;24.40;1.00
6355;DHT22;3210;48.708;9.030;2023-07-29T10:47:21;24.50;1.00
6355;DHT22;3210;48.708;9.030;2023-07-29T10:49:50;24.70;1.00
6355;DHT22;3210;48.708;9.030;2023-07-29T10:52:29;24.90;1.00
6355;DHT22;3210;48.708;9.030;2023-07-29T10:54:56;25.00;1.00
6355;DHT22;3210;48.708;9.030;2023-07-29T10:57:31;25.20;1.00
6355;DHT22;3210;48.708;9.030;2023-07-29T10:59:58;25.10;1.00
6355;DHT22;3210;48.708;9.030;2023-07-29T11:02:30;24.80;1.00
6355;DHT22;3210;48.708;9.030;2023-07-29T11:04:57;24.30;1.00
6355;DHT22;3210;48.708;9.030;2023-07-29T11:07:26;24.40;1.00
6355;DHT22;3210;48.708;9.030;2023-07-29T11:09:57;24.60;1.00
6355;DHT22;3210;48.708;9.030;2023-07-29T11:12:38;24.80;1.00
6355;DHT22;3210;48.708;9.030;2023-07-29T11:15:13;24.80;1.00
6355;DHT22;3210;48.708;9.030;2023-07-29T11:17:43;24.70;1.00
6355;DHT22;3210;48.708;9.030;2023-07-29T11:20:10;24.80;1.00
6355;DHT22;3210;48.708;9.030;2023-07-29T11:22:38;24.80;1.00
6355;DHT22;3210;48.708;9.030;2023-07-29T11:25:06;24.60;1.00
6355;DHT22;3210;48.708;9.030;2023-07-29T11:27:34;24.30;1.00
6355;DHT22;3210;48.708;9.030;2023-07-29T11:30:02;24.40;1.00
6355;DHT22;3210;48.708;9.030;2023-07-29T11:32:30;24.50;1.00
6355;DHT22;3210;48.708;9.030;2023-07-29T11:35:01;24.60;1.00
6355;DHT22;3210;48.708;9.030;2023-07-29T11:37:28;24.70;1.00
6355;DHT22;3210;48.708;9.030;2023-07-29T11:39:55;24.90;1.00
6355;DHT22;3210;48.708;9.030;2023-07-29T11:42:21;25.00;1.00
6355;DHT22;3210;48.708;9.030;2023-07-29T11:44:48;25.10;1.00
6355;DHT22;3210;48.708;9.030;2023-07-29T11:47:15;25.00;1.00
6355;DHT22;3210;48.708;9.030;2023-07-29T11:49:42;24.90;1.00
6355;DHT22;3210;48.708;9.030;2023-07-29T11:52:10;25.00;1.00
6355;DHT22;3210;48.708;9.030;2023-07-29T11:54:38;25.10;1.00
6355;DHT22;3210;48.708;9.030;2023-07-29T11:57:06;25.30;1.00
6355;DHT22;3210;48.708;9.030;2023-07-29T11:59:34;25.20;1.00
6355;DHT22;3210;48.708;9.030;2023-07-29T12:02:02;25.30;1.00
6355;DHT22;3210;48.708;9.030;2023-07-29T12:04:33;25.40;1.00
6355;DHT22;3210;48.708;9.030;2023-07-29T12:07:00;25.70;1.00
6355;DHT22;3210;48.708;9.030;2023-07-29T12:09:29;25.80;1.00
6355;DHT22;3210;48.708;9.030;2023-07-29T12:11:56;25.70;1.00
6355;DHT22;3210;48.708;9.030;2023-07-29T12:14:25;25.40;1.00
6355;DHT22;3210;48.708;9.030;2023-07-29T12:16:52;25.20;1.00
6355;DHT22;3210;48.708;9.030;2023-07-29T12:19:19;25.10;1.00
6355;DHT22;3210;48.708;9.030;2023-07-29T12:21:48;25.20;1.00
6355;DHT22;3210;48.708;9.030;2023-07-29T12:24:15;25.30;1.00
6355;DHT22;3210;48.708;9.030;2023-07-29T12:26:44;25.30;1.00
6355;DHT22;3210;48.708;9.030;2023-07-29T12:29:11;25.70;1.00
6355;DHT22;3210;48.708;9.030;2023-07-29T12:31:39;25.70;1.00
6355;DHT22;3210;48.708;9.030;2023-07-29T12:34:06;25.80;1.00
6355;DHT22;3210;48.708;9.030;2023-07-29T12:36:48;26.00;1.00
6355;DHT22;3210;48.708;9.030;2023-07-29T12:39:19;26.00;1.00
6355;DHT22;3210;48.708;9.030;2023-07-29T12:41:49;26.00;1.00
6355;DHT22;3210;48.708;9.030;2023-07-29T12:44:16;25.90;1.00
6355;DHT22;3210;48.708;9.030;2023-07-29T12:46:43;25.90;1.00
6355;DHT22;3210;48.708;9.030;2023-07-29T12:49:10;25.70;1.00
6355;DHT22;3210;48.708;9.030;2023-07-29T12:51:37;25.80;1.00
6355;DHT22;3210;48.708;9.030;2023-07-29T12:54:04;25.90;1.00
6355;DHT22;3210;48.708;9.030;2023-07-29T12:56:31;26.00;1.00
6355;DHT22;3210;48.708;9.030;2023-07-29T12:59:00;26.10;1.00
6355;DHT22;3210;48.708;9.030;2023-07-29T13:01:27;26.20;1.00
6355;DHT22;3210;48.708;9.030;2023-07-29T13:03:55;26.10;1.00
6355;DHT22;3210;48.708;9.030;2023-07-29T13:06:22;25.90;1.00
6355;DHT22;3210;48.708;9.030;2023-07-29T13:08:49;26.10;1.00
6355;DHT22;3210;48.708;9.030;2023-07-29T13:11:16;26.20;1.00
6355;DHT22;3210;48.708;9.030;2023-07-29T13:13:43;26.30;1.00
6355;DHT22;3210;48.708;9.030;2023-07-29T13:16:12;26.50;1.00
6355;DHT22;3210;48.708;9.030;2023-07-29T13:18:39;26.30;1.00
6355;DHT22;3210;48.708;9.030;2023-07-29T13:21:06;26.20;1.00
6355;DHT22;3210;48.708;9.030;2023-07-29T13:23:33;26.00;1.00
6355;DHT22;3210;48.708;9.030;2023-07-29T13:26:00;25.90;1.00
6355;DHT22;3210;48.708;9.030;2023-07-29T13:28:27;25.70;1.00
6355;DHT22;3210;48.708;9.030;2023-07-29T13:30:54;25.90;1.00
6355;DHT22;3210;48.708;9.030;2023-07-29T13:33:22;25.90;1.00
6355;DHT22;3210;48.708;9.030;2023-07-29T13:35:49;25.70;1.00
6355;DHT22;3210;48.708;9.030;2023-07-29T13:38:15;25.70;1.00
6355;DHT22;3210;48.708;9.030;2023-07-29T13:40:42;25.60;1.00
6355;DHT22;3210;48.708;9.030;2023-07-29T13:43:09;25.70;1.00
6355;DHT22;3210;48.708;9.030;2023-07-29T13:45:36;25.70;1.00
6355;DHT22;3210;48.708;9.030;2023-07-29T13:48:03;25.70;1.00
6355;DHT22;3210;48.708;9.030;2023-07-29T13:50:31;25.70;1.00
6355;DHT22;3210;48.708;9.030;2023-07-29T13:52:58;25.80;1.00
6355;DHT22;3210;48.708;9.030;2023-07-29T13:55:25;25.60;1.00
6355;DHT22;3210;48.708;9.030;2023-07-29T13:57:52;25.60;1.00
6355;DHT22;3210;48.708;9.030;2023-07-29T14:00:20;25.60;1.00
6355;DHT22;3210;48.708;9.030;2023-07-29T14:02:47;25.50;1.00
6355;DHT22;3210;48.708;9.030;2023-07-29T14:05:14;25.60;1.00
6355;DHT22;3210;48.708;9.030;2023-07-29T14:07:42;25.60;1.00
6355;DHT22;3210;48.708;9.030;2023-07-29T14:10:09;25.50;1.00
6355;DHT22;3210;48.708;9.030;2023-07-29T14:12:36;25.50;1.00
6355;DHT22;3210;48.708;9.030;2023-07-29T14:15:04;25.50;1.00
6355;DHT22;3210;48.708;9.030;2023-07-29T14:17:31;25.30;1.00
6355;DHT22;3210;48.708;9.030;2023-07-29T14:19:58;25.20;1.00
6355;DHT22;3210;48.708;9.030;2023-07-29T14:22:25;25.10;1.00
6355;DHT22;3210;48.708;9.030;2023-07-29T14:24:53;25.00;1.00
6355;DHT22;3210;48.708;9.030;2023-07-29T14:27:19;25.10;1.00
6355;DHT22;3210;48.708;9.030;2023-07-29T14:29:46;25.20;1.00
6355;DHT22;3210;48.708;9.030;2023-07-29T14:32:13;25.30;1.00
6355;DHT22;3210;48.708;9.030;2023-07-29T14:34:40;25.30;1.00
6355;DHT22;3210;48.708;9.030;2023-07-29T14:37:07;25.20;1.00
6355;DHT22;3210;48.708;9.030;2023-07-29T14:39:33;25.00;1.00
6355;DHT22;3210;48.708;9.030;2023-07-29T14:42:01;25.00;1.00
6355;DHT22;3210;48.708;9.030;2023-07-29T14:44:28;24.90;1.00
6355;DHT22;3210;48.708;9.030;2023-07-29T14:46:55;25.00;1.00
6355;DHT22;3210;48.708;9.030;2023-07-29T14:49:22;25.10;1.00
6355;DHT22;3210;48.708;9.030;2023-07-29T14:51:49;25.20;1.00
6355;DHT22;3210;48.708;9.030;2023-07-29T14:54:15;25.20;1.00
6355;DHT22;3210;48.708;9.030;2023-07-29T14:56:42;25.20;1.00
6355;DHT22;3210;48.708;9.030;2023-07-29T14:59:10;25.20;1.00
6355;DHT22;3210;48.708;9.030;2023-07-29T15:01:37;25.20;1.00
6355;DHT22;3210;48.708;9.030;2023-07-29T15:04:04;25.20;1.00
6355;DHT22;3210;48.708;9.030;2023-07-29T15:06:31;25.00;1.00
6355;DHT22;3210;48.708;9.030;2023-07-29T15:08:58;24.90;1.00
6355;DHT22;3210;48.708;9.030;2023-07-29T15:11:24;24.80;1.00
6355;DHT22;3210;48.708;9.030;2023-07-29T15:13:51;24.90;1.00
6355;DHT22;3210;48.708;9.030;2023-07-29T15:16:23;24.90;1.00
6355;DHT22;3210;48.708;9.030;2023-07-29T15:18:50;24.90;1.00
6355;DHT22;3210;48.708;9.030;2023-07-29T15:21:16;24.90;1.00
6355;DHT22;3210;48.708;9.030;2023-07-29T15:23:43;25.00;1.00
6355;DHT22;3210;48.708;9.030;2023-07-29T15:26:11;25.10;1.00
6355;DHT22;3210;48.708;9.030;2023-07-29T15:28:38;25.00;1.00
6355;DHT22;3210;48.708;9.030;2023-07-29T15:31:05;24.90;1.00
6355;DHT22;3210;48.708;9.030;2023-07-29T15:33:35;24.90;1.00
6355;DHT22;3210;48.708;9.030;2023-07-29T15:36:02;25.20;1.00
6355;DHT22;3210;48.708;9.030;2023-07-29T15:38:31;25.40;1.00
6355;DHT22;3210;48.708;9.030;2023-07-29T15:40:59;25.50;1.00
6355;DHT22;3210;48.708;9.030;2023-07-29T15:43:28;25.60;1.00
6355;DHT22;3210;48.708;9.030;2023-07-29T15:45:55;25.60;1.00
6355;DHT22;3210;48.708;9.030;2023-07-29T15:48:23;25.80;1.00
6355;DHT22;3210;48.708;9.030;2023-07-29T15:50:51;25.90;1.00
6355;DHT22;3210;48.708;9.030;2023-07-29T15:53:18;25.70;1.00
6355;DHT22;3210;48.708;9.030;2023-07-29T15:55:45;25.70;1.00
6355;DHT22;3210;48.708;9.030;2023-07-29T15:58:15;25.60;1.00
6355;DHT22;3210;48.708;9.030;2023-07-29T16:00:42;25.40;1.00
6355;DHT22;3210;48.708;9.030;2023-07-29T16:03:11;25.50;1.00
6355;DHT22;3210;48.708;9.030;2023-07-29T16:05:38;25.90;1.00
6355;DHT22;3210;48.708;9.030;2023-07-29T16:08:09;26.20;1.00
6355;DHT22;3210;48.708;9.030;2023-07-29T16:10:38;26.10;1.00
6355;DHT22;3210;48.708;9.030;2023-07-29T16:13:05;26.30;1.00
6355;DHT22;3210;48.708;9.030;2023-07-29T16:15:32;26.50;1.00